createdAt,value
2022-07-27T00:00:23.470Z,-26.2
2022-07-27T00:02:25.306Z,-26.3
2022-07-27T00:04:26.625Z,-26.4
2022-07-27T00:06:28.060Z,-26.3
2022-07-27T00:08:29.090Z,-26.4
2022-07-27T00:10:30.000Z,-26.3
2022-07-27T00:12:31.424Z,-26.3
2022-07-27T00:14:33.126Z,-26.3
2022-07-27T00:16:34.376Z,-26.4
2022-07-27T00:18:36.106Z,-26.2
2022-07-27T00:20:37.514Z,-26.2
2022-07-27T00:22:39.288Z,-26.1
2022-07-27T00:24:40.312Z,-26.3
2022-07-27T00:26:41.552Z,-26.3
2022-07-27T00:28:42.691Z,-26.3
2022-07-27T00:30:43.784Z,-26.2
2022-07-27T00:32:44.876Z,-26.3
2022-07-27T00:34:45.796Z,-26.4
2022-07-27T00:36:47.433Z,-26.5
2022-07-27T00:38:48.875Z,-26.2
2022-07-27T00:40:50.350Z,-26.1
2022-07-27T00:44:53.354Z,-26.3
2022-07-27T00:46:54.527Z,-26.5
2022-07-27T00:48:56.329Z,-26.4
2022-07-27T00:50:57.707Z,-26.5
2022-07-27T00:52:59.012Z,-26.1
2022-07-27T00:55:00.399Z,-26.5
2022-07-27T00:57:01.344Z,-26.2
2022-07-27T00:59:02.471Z,-26.3
2022-07-27T01:03:08.869Z,-26
2022-07-27T01:09:09.383Z,-26.3
2022-07-27T01:11:10.695Z,-26.4
2022-07-27T01:13:12.383Z,-26.2
2022-07-27T01:17:15.559Z,-26.2
2022-07-27T01:19:16.996Z,-26.3
2022-07-27T01:21:18.786Z,-26.3
2022-07-27T01:23:20.583Z,-26.5
2022-07-27T01:29:24.477Z,-26.5
2022-07-27T01:31:25.610Z,-26.5
2022-07-27T01:33:27.433Z,-26.5
2022-07-27T01:35:28.508Z,-26
2022-07-27T01:37:30.173Z,-26.3
2022-07-27T01:39:31.450Z,-26.5
2022-07-27T01:43:34.395Z,-26.4
2022-07-27T01:45:35.359Z,-26.3
2022-07-27T01:47:36.677Z,-26.6
2022-07-27T01:49:38.185Z,-26.1
2022-07-27T01:51:40.088Z,-26.5
2022-07-27T01:53:41.286Z,-26.2
2022-07-27T01:57:43.407Z,-26.3
2022-07-27T01:59:44.673Z,-26.1
2022-07-27T02:01:46.120Z,-26.2
2022-07-27T02:05:49.307Z,-26.3
2022-07-27T02:07:50.528Z,-26.3
2022-07-27T02:09:51.607Z,-26.2
2022-07-27T02:11:52.985Z,-26.3
2022-07-27T02:13:53.931Z,-26.4
2022-07-27T02:15:55.361Z,-26.5
2022-07-27T02:17:56.324Z,-26.3
2022-07-27T02:19:57.415Z,-26.2
2022-07-27T02:21:58.778Z,-26.5
2022-07-27T02:23:59.850Z,-26.3
2022-07-27T02:26:01.654Z,-26.2
2022-07-27T02:28:02.902Z,-26.5
2022-07-27T02:30:04.428Z,-26.6
2022-07-27T02:32:05.583Z,-26.4
2022-07-27T02:38:09.717Z,-26.3
2022-07-27T02:40:11.426Z,-26.5
2022-07-27T02:42:13.004Z,-26.3
2022-07-27T02:44:14.815Z,-26.5
2022-07-27T02:46:16.169Z,-26.3
2022-07-27T02:48:17.143Z,-26.5
2022-07-27T02:50:18.956Z,-26.6
2022-07-27T02:54:22.241Z,-26.3
2022-07-27T02:56:26.592Z,-26.4
2022-07-27T02:58:24.555Z,-26.4
2022-07-27T03:00:26.352Z,-26.5
2022-07-27T03:02:28.158Z,-26.3
2022-07-27T03:04:29.678Z,-26.2
2022-07-27T03:10:33.549Z,-26.1
2022-07-27T03:12:35.433Z,-26.4
2022-07-27T03:14:36.774Z,-26.2
2022-07-27T03:16:37.958Z,-26.2
2022-07-27T03:18:39.675Z,-26.3
2022-07-27T03:20:40.959Z,-26.5
2022-07-27T03:22:42.875Z,-26.4
2022-07-27T03:24:44.456Z,-26.3
2022-07-27T03:26:46.294Z,-26.6
2022-07-27T03:30:58.934Z,-26.3
2022-07-27T03:32:51.160Z,-26.2
2022-07-27T03:34:52.619Z,-26.2
2022-07-27T03:36:54.152Z,-26.4
2022-07-27T03:38:55.625Z,-26
2022-07-27T03:40:57.531Z,-26.3
2022-07-27T03:42:58.938Z,-26.4
2022-07-27T03:45:00.044Z,-26.2
2022-07-27T03:47:01.062Z,-26.6
2022-07-27T03:53:05.530Z,-26.2
2022-07-27T03:55:07.437Z,-26.3
2022-07-27T03:57:08.956Z,-26.3
2022-07-27T03:59:10.390Z,-26.1
2022-07-27T04:01:12.024Z,-26.3
2022-07-27T04:03:13.289Z,-26.6
2022-07-27T04:07:16.607Z,-26.3
2022-07-27T04:09:17.936Z,-26.3
2022-07-27T04:11:19.353Z,-26.6
2022-07-27T04:13:20.857Z,-26.2
2022-07-27T04:17:53.704Z,-26.3
2022-07-27T04:19:25.123Z,-26.2
2022-07-27T04:21:27.536Z,-26.3
2022-07-27T04:23:27.567Z,-26.3
2022-07-27T04:25:29.226Z,-26.5
2022-07-27T04:27:30.156Z,-26.4
2022-07-27T04:29:31.631Z,-26.7
2022-07-27T04:33:34.520Z,-26.2
2022-07-27T04:35:35.894Z,-26.5
2022-07-27T04:37:37.347Z,-26.2
2022-07-27T04:39:38.300Z,-26.5
2022-07-27T04:41:39.451Z,-26.3
2022-07-27T04:43:41.321Z,-26.2
2022-07-27T04:45:42.917Z,-26.4
2022-07-27T04:47:44.023Z,-26.3
2022-07-27T04:49:45.182Z,-26.6
2022-07-27T04:51:46.356Z,-26.3
2022-07-27T04:53:52.290Z,-26.6
2022-07-27T05:01:52.187Z,-26.2
2022-07-27T05:03:53.614Z,-26.3
2022-07-27T05:05:54.585Z,-26.4
2022-07-27T05:07:56.450Z,-26.4
2022-07-27T05:09:58.364Z,-26.9
2022-07-27T05:11:59.676Z,-26.4
2022-07-27T05:18:04.392Z,-0.4
2022-07-27T05:20:05.874Z,3
2022-07-27T05:22:07.298Z,5.3
2022-07-27T05:24:08.749Z,18.79
2022-07-27T05:26:10.268Z,12.9
2022-07-27T05:28:11.785Z,17.29
2022-07-27T05:32:14.400Z,33.5
2022-07-27T05:34:15.591Z,34
2022-07-27T05:36:16.765Z,40
2022-07-27T05:38:18.394Z,47.5
2022-07-27T05:40:20.025Z,49
2022-07-27T05:42:21.284Z,50.7
2022-07-27T05:44:22.204Z,59.8
2022-07-27T05:46:23.391Z,45.3
2022-07-27T05:48:24.975Z,54.2
2022-07-27T05:51:09.535Z,17.9
2022-07-27T05:53:10.359Z,73.6
2022-07-27T05:55:11.816Z,18.5
2022-07-27T05:59:15.579Z,22.1
2022-07-27T06:01:16.768Z,36.8
2022-07-27T06:03:17.852Z,34
2022-07-27T06:05:19.288Z,35.8
2022-07-27T06:09:21.856Z,69.5
2022-07-27T06:11:23.656Z,66.1
2022-07-27T06:13:28.300Z,67.3
2022-07-27T06:15:25.843Z,66.1
2022-07-27T06:19:36.208Z,64.19
2022-07-27T06:21:30.340Z,62.2
2022-07-27T06:25:33.890Z,59.5
2022-07-27T06:27:37.709Z,57.8
2022-07-27T06:29:36.462Z,56.7
2022-07-27T06:31:37.996Z,55.6
2022-07-27T06:37:42.044Z,10.3
2022-07-27T06:39:43.391Z,13.1
2022-07-27T06:41:44.558Z,50.8
2022-07-27T06:43:46.142Z,49.3
2022-07-27T06:45:47.702Z,8.89
2022-07-27T06:47:50.095Z,47.2
2022-07-27T06:49:51.025Z,44.8
2022-07-27T06:51:52.511Z,39.8
2022-07-27T06:53:53.369Z,37.09
2022-07-27T06:55:55.752Z,35.7
2022-07-27T06:57:56.154Z,38
2022-07-27T06:59:57.578Z,36.4
2022-07-27T07:01:59.266Z,35.09
2022-07-27T07:04:00.891Z,33.59
2022-07-27T07:06:01.899Z,32.7
2022-07-27T07:08:03.002Z,27.7
2022-07-27T07:10:04.463Z,25.6
2022-07-27T07:12:05.418Z,28.4
2022-07-27T07:14:06.732Z,28.5
2022-07-27T07:16:08.173Z,26.6
2022-07-27T07:18:09.650Z,21.4
2022-07-27T07:20:11.329Z,19.9
2022-07-27T07:24:14.254Z,22.8
2022-07-27T07:26:15.066Z,17.4
2022-07-27T07:28:16.578Z,16.1
2022-07-27T07:30:17.808Z,15.8
2022-07-27T07:32:18.761Z,13.6
2022-07-27T07:36:21.138Z,10.7
2022-07-27T07:38:22.378Z,10.6
2022-07-27T07:40:42.456Z,15.5
2022-07-27T07:42:24.991Z,14.3
2022-07-27T07:44:26.650Z,-26.4
2022-07-27T07:46:28.168Z,-26.1
2022-07-27T07:50:31.233Z,-25.8
2022-07-27T07:52:32.951Z,-26.3
2022-07-27T07:54:33.960Z,-26.4
2022-07-27T07:56:35.258Z,-25.9
2022-07-27T07:58:36.356Z,-26.3
2022-07-27T08:00:37.478Z,-26
2022-07-27T08:02:38.404Z,-26.1
2022-07-27T08:04:39.488Z,-26.2
2022-07-27T08:06:40.788Z,-26.5
2022-07-27T08:08:42.547Z,-26.3
2022-07-27T08:10:43.941Z,-26.2
2022-07-27T08:12:44.748Z,-26.4
2022-07-27T08:18:48.044Z,-26.3
2022-07-27T08:20:49.523Z,-26.2
2022-07-27T08:22:50.396Z,-26.5
2022-07-27T08:24:51.374Z,-26.2
2022-07-27T08:26:52.380Z,-26
2022-07-27T08:30:54.886Z,-26
2022-07-27T08:34:57.673Z,-26.6
2022-07-27T08:36:59.094Z,-26.3
2022-07-27T08:39:00.190Z,-26.1
2022-07-27T08:41:01.057Z,-26.5
2022-07-27T08:43:02.838Z,-25.9
2022-07-27T08:45:03.612Z,-26.2
2022-07-27T08:47:04.858Z,-26.3
2022-07-27T08:49:06.057Z,-26.1
2022-07-27T08:51:07.706Z,-26.3
2022-07-27T08:53:09.493Z,-26.2
2022-07-27T09:01:14.936Z,-26.2
2022-07-27T09:05:17.336Z,-26.1
2022-07-27T09:07:18.601Z,-25.9
2022-07-27T09:09:20.100Z,-26.2
2022-07-27T09:11:21.112Z,-26.3
2022-07-27T09:17:48.278Z,-26.1
2022-07-27T09:19:27.811Z,-26.3
2022-07-27T09:21:28.995Z,-26.1
2022-07-27T09:23:29.807Z,-26
2022-07-27T09:26:00.710Z,-26.1
2022-07-27T09:27:32.488Z,-26.3
2022-07-27T09:29:34.228Z,-26.6
2022-07-27T09:31:35.664Z,-26.2
2022-07-27T09:33:36.769Z,-26.1
2022-07-27T09:35:38.237Z,-26.1
2022-07-27T09:37:39.338Z,-26.1
2022-07-27T09:39:40.784Z,-25.9
2022-07-27T09:41:41.838Z,-26
2022-07-27T09:45:44.657Z,-26.2
2022-07-27T09:47:46.203Z,-26.1
2022-07-27T09:49:47.346Z,-26.1
2022-07-27T09:53:49.648Z,-26.4
2022-07-27T09:55:54.336Z,-26.2
2022-07-27T09:57:52.862Z,-26.3
2022-07-27T09:59:54.328Z,-26
2022-07-27T10:01:55.957Z,-26.2
2022-07-27T10:03:57.052Z,-26.3
2022-07-27T10:05:58.446Z,-26.3
2022-07-27T10:07:59.442Z,-26.2
2022-07-27T10:12:01.937Z,-26.2
2022-07-27T10:14:02.670Z,-26.1
2022-07-27T10:16:04.452Z,-26.3
2022-07-27T10:18:07.269Z,-26.1
2022-07-27T10:20:07.333Z,-26.3
2022-07-27T10:24:10.734Z,-26
2022-07-27T10:26:11.327Z,-26.5
2022-07-27T10:30:14.519Z,-26.3
2022-07-27T10:32:16.175Z,-26.3
2022-07-27T10:34:16.992Z,-26.2
2022-07-27T10:36:18.021Z,-26.3
2022-07-27T10:42:22.248Z,-26.1
2022-07-27T10:44:23.121Z,-26.1
2022-07-27T10:46:24.190Z,-26.2
2022-07-27T10:50:26.431Z,-26.1
2022-07-27T10:56:29.897Z,-26.2
2022-07-27T10:58:31.290Z,-26.5
2022-07-27T11:00:32.796Z,-26
2022-07-27T11:02:34.407Z,-26.3
2022-07-27T11:04:35.565Z,-26.1
2022-07-27T11:06:55.710Z,-26.1
2022-07-27T11:08:46.888Z,-26.5
2022-07-27T11:10:39.876Z,-26.6
2022-07-27T11:12:41.510Z,-26.2
2022-07-27T11:14:43.075Z,-26.3
2022-07-27T11:16:54.344Z,-26.3
2022-07-27T11:18:45.910Z,-26
2022-07-27T11:20:47.632Z,-26
2022-07-27T11:24:50.201Z,-26.5
2022-07-27T11:28:52.256Z,-26.5
2022-07-27T11:30:53.223Z,-26.2
2022-07-27T11:32:54.653Z,-25.9
2022-07-27T11:38:58.377Z,-26.4
2022-07-27T11:43:01.050Z,-26.5
2022-07-27T11:45:02.546Z,-26.4
2022-07-27T11:47:04.304Z,-26.1
2022-07-27T11:49:07.820Z,-26.4
2022-07-27T11:51:06.809Z,-26.1
2022-07-27T11:53:08.505Z,-26.3
2022-07-27T11:55:10.105Z,-26.2
2022-07-27T11:57:11.262Z,-26
2022-07-27T11:59:12.253Z,-26.1
2022-07-27T12:01:13.662Z,-26.1
2022-07-27T12:03:14.461Z,-26.2
2022-07-27T12:05:16.209Z,-26.4
2022-07-27T12:07:17.851Z,-26.3
2022-07-27T12:09:18.925Z,-26
2022-07-27T12:11:20.025Z,-26.5
2022-07-27T12:13:20.662Z,-26.3
2022-07-27T12:17:23.133Z,-26.2
2022-07-27T12:21:25.251Z,-26.4
2022-07-27T12:23:26.513Z,-26.2
2022-07-27T12:25:28.009Z,-26.2
2022-07-27T12:27:29.020Z,-26.2
2022-07-27T12:29:30.615Z,-26.2
2022-07-27T12:31:32.135Z,-26.4
2022-07-27T12:36:18.402Z,55.9
2022-07-27T12:40:20.684Z,51.8
2022-07-27T12:42:21.624Z,49.5
2022-07-27T12:44:23.354Z,48.2
2022-07-27T12:50:25.960Z,42.9
2022-07-27T12:52:26.900Z,41.6
2022-07-27T12:54:27.972Z,40.2
2022-07-27T12:56:29.716Z,37.7
2022-07-27T12:58:31.386Z,37.3
2022-07-27T13:00:34.123Z,33.7
2022-07-27T13:02:35.382Z,33.4
2022-07-27T13:04:36.534Z,31.7
2022-07-27T13:06:38.260Z,27.2
2022-07-27T13:08:39.215Z,23.7
2022-07-27T13:10:40.149Z,27
2022-07-27T13:12:41.237Z,26.1
2022-07-27T13:14:43.354Z,25.3
2022-07-27T13:16:43.148Z,22.8
2022-07-27T13:18:44.120Z,22.2
2022-07-27T13:20:45.745Z,21.2
2022-07-27T13:22:47.204Z,20.7
2022-07-27T13:24:48.833Z,18.5
2022-07-27T13:26:50.434Z,17.5
2022-07-27T13:32:54.690Z,10.1
2022-07-27T13:34:55.988Z,14.5
2022-07-27T13:36:56.888Z,13.7
2022-07-27T13:38:58.214Z,-26.3
2022-07-27T13:40:59.446Z,-26.6
2022-07-27T13:43:00.858Z,-26.1
2022-07-27T13:47:03.318Z,-26.3
2022-07-27T13:49:04.349Z,-26.5
2022-07-27T13:51:05.461Z,-26.3
2022-07-27T13:53:06.492Z,-26.3
2022-07-27T13:59:09.822Z,-26.2
2022-07-27T14:01:10.637Z,-26.4
2022-07-27T14:03:11.806Z,-26.1
2022-07-27T14:05:14.165Z,-26
2022-07-27T14:07:14.816Z,-26.1
2022-07-27T14:09:17.692Z,-26.5
2022-07-27T14:11:17.653Z,-26.3
2022-07-27T14:13:19.369Z,-26.1
2022-07-27T14:15:20.322Z,-26.1
2022-07-27T14:17:21.216Z,-26.5
2022-07-27T14:19:22.074Z,-26.4
2022-07-27T14:21:23.325Z,-25.9
2022-07-27T14:23:24.772Z,-26.4
2022-07-27T14:25:25.955Z,-26.5
2022-07-27T14:27:36.313Z,-26.3
2022-07-27T14:29:29.028Z,-26.2
2022-07-27T14:31:30.308Z,-26.3
2022-07-27T14:33:34.032Z,-26.4
2022-07-27T14:35:37.008Z,-26.2
2022-07-27T14:37:34.720Z,-26.2
2022-07-27T14:39:35.537Z,-26.2
2022-07-27T14:41:39.102Z,-26.2
2022-07-27T14:43:37.966Z,-26
2022-07-27T14:45:43.855Z,-25.9
2022-07-27T14:47:40.595Z,-26.2
2022-07-27T14:49:42.251Z,-26.3
2022-07-27T14:51:43.789Z,-26.4
2022-07-27T14:53:44.764Z,-26.4
2022-07-27T14:57:48.164Z,-26
2022-07-27T14:59:49.781Z,-26.4
2022-07-27T15:01:51.135Z,-26
2022-07-27T15:03:52.045Z,-26.2
2022-07-27T15:05:53.182Z,-26.5
2022-07-27T15:07:54.590Z,-26
2022-07-27T15:13:58.796Z,-26.3
2022-07-27T15:15:59.930Z,-26.2
2022-07-27T15:18:00.668Z,-26.1
2022-07-27T15:20:02.270Z,-26.1
2022-07-27T15:22:03.564Z,-26.2
2022-07-27T15:24:04.962Z,-26.4
2022-07-27T15:26:05.976Z,-26.4
2022-07-27T15:28:07.911Z,-26.3
2022-07-27T15:30:08.609Z,-26.3
2022-07-27T15:36:31.756Z,-26.3
2022-07-27T15:38:14.836Z,-26.4
2022-07-27T15:40:15.853Z,-26.3
2022-07-27T15:44:19.091Z,-26.2
2022-07-27T15:46:27.068Z,-26.1
2022-07-27T15:48:21.868Z,-26.2
2022-07-27T15:50:23.225Z,-26.1
2022-07-27T15:54:27.189Z,-25.9
2022-07-27T15:56:26.555Z,-26.1
2022-07-27T16:00:30.802Z,-26.5
2022-07-27T16:02:31.156Z,-26.4
2022-07-27T16:04:32.698Z,-26.1
2022-07-27T16:06:38.767Z,-26.2
2022-07-27T16:08:36.557Z,-26.3
2022-07-27T16:10:38.014Z,-26.3
2022-07-27T16:12:39.364Z,-26.7
2022-07-27T16:16:42.070Z,-26.2
2022-07-27T16:18:43.463Z,-26
2022-07-27T16:22:45.861Z,-26.3
2022-07-27T16:26:48.104Z,-26.2
2022-07-27T16:28:48.884Z,-26.3
2022-07-27T16:30:49.971Z,-26.2
2022-07-27T16:32:50.932Z,-26
2022-07-27T16:34:52.193Z,-26.1
2022-07-27T16:36:53.496Z,-26.3
2022-07-27T16:38:54.522Z,-26.3
2022-07-27T16:40:55.925Z,-26.3
2022-07-27T16:42:57.590Z,-26.1
2022-07-27T16:44:58.665Z,-26.2
2022-07-27T16:46:59.979Z,-26.3
2022-07-27T16:49:01.238Z,-26.2
2022-07-27T16:51:02.894Z,-26.4
2022-07-27T16:53:03.853Z,-26.3
2022-07-27T16:55:05.470Z,-26.4
2022-07-27T16:59:07.730Z,-26
2022-07-27T17:01:09.379Z,-26.3
2022-07-27T17:03:10.375Z,-26
2022-07-27T17:07:12.984Z,-26.2
2022-07-27T17:09:14.456Z,-26.5
2022-07-27T17:11:14.982Z,-26.2
2022-07-27T17:13:16.645Z,-26
2022-07-27T17:15:18.142Z,-26.3
2022-07-27T17:17:19.593Z,-26.3
2022-07-27T17:19:21.431Z,-26.1
2022-07-27T17:21:22.319Z,-26.5
2022-07-27T17:27:26.034Z,-26.6
2022-07-27T17:29:27.399Z,-26.2
2022-07-27T17:31:29.170Z,-26.5
2022-07-27T17:33:30.373Z,-26.1
2022-07-27T17:35:31.334Z,-26.2
2022-07-27T17:37:49.521Z,-26.2
2022-07-27T17:41:35.213Z,-26.3
2022-07-27T17:43:36.086Z,-26.3
2022-07-27T17:45:37.201Z,-26.6
2022-07-27T17:47:38.346Z,-26.3
2022-07-27T17:49:39.988Z,-26
2022-07-27T17:51:41.291Z,-26.2
2022-07-27T17:53:42.937Z,-26.6
2022-07-27T17:55:44.354Z,-26.4
2022-07-27T17:57:45.903Z,-26.1
2022-07-27T17:59:47.124Z,-26.6
2022-07-27T18:03:49.403Z,-26.1
2022-07-27T18:05:50.618Z,-26.6
2022-07-27T18:07:51.770Z,-26.1
2022-07-27T18:09:52.990Z,-26.3
2022-07-27T18:11:54.327Z,-26.1
2022-07-27T18:13:55.993Z,-26.2
2022-07-27T18:15:57.600Z,-26.2
2022-07-27T18:17:59.344Z,-26.1
2022-07-27T18:20:00.833Z,-26.3
2022-07-27T18:22:01.689Z,-26.2
2022-07-27T18:24:03.135Z,-26.1
2022-07-27T18:26:04.965Z,-26
2022-07-27T18:28:06.409Z,-26.3
2022-07-27T18:30:08.057Z,-26.3
2022-07-27T18:32:09.360Z,-26.3
2022-07-27T18:34:12.980Z,-26.3
2022-07-27T18:36:12.188Z,-26.2
2022-07-27T18:38:13.543Z,-26.1
2022-07-27T18:40:14.561Z,-26.2
2022-07-27T18:42:15.888Z,-26.3
2022-07-27T18:44:16.909Z,-26
2022-07-27T18:46:18.008Z,-26.3
2022-07-27T18:48:19.475Z,-26.2
2022-07-27T18:52:22.139Z,-26.3
2022-07-27T18:54:23.164Z,-26.3
2022-07-27T18:56:24.728Z,-26.1
2022-07-27T18:58:26.632Z,-26.5
2022-07-27T19:00:28.002Z,-26.5
2022-07-27T19:02:28.989Z,-26.2
2022-07-27T19:06:31.587Z,-26.4
2022-07-27T19:08:33.410Z,-26.2
2022-07-27T19:10:34.425Z,-26.5
2022-07-27T19:12:36.201Z,-26.3
2022-07-27T19:14:37.423Z,-26.2
2022-07-27T19:16:39.187Z,-26.1
2022-07-27T19:18:40.346Z,-26.6
2022-07-27T19:20:42.053Z,-26.4
2022-07-27T19:23:27.288Z,-26.1
2022-07-27T19:25:28.498Z,-26
2022-07-27T19:27:30.027Z,-26.5
2022-07-27T19:29:31.306Z,-26.2
2022-07-27T19:33:33.785Z,-26.4
2022-07-27T19:35:35.197Z,-26.2
2022-07-27T19:37:36.275Z,-26.4
2022-07-27T19:39:57.684Z,-26.2
2022-07-27T19:43:40.554Z,-26.1
2022-07-27T19:45:42.341Z,-26.2
2022-07-27T19:47:43.960Z,-26.1
2022-07-27T19:49:45.499Z,-26.4
2022-07-27T19:51:46.524Z,-26.4
2022-07-27T19:53:48.186Z,-26.1
2022-07-27T19:55:49.679Z,-26.5
2022-07-27T19:57:50.657Z,-26
2022-07-27T19:59:54.859Z,-26.1
2022-07-27T20:01:54.096Z,-26.4
2022-07-27T20:03:55.189Z,-26.2
2022-07-27T20:05:56.169Z,-26.4
2022-07-27T20:07:57.555Z,-26.1
2022-07-27T20:09:58.754Z,-26.2
2022-07-27T20:12:00.750Z,-26.3
2022-07-27T20:16:03.219Z,-26.1
2022-07-27T20:18:04.375Z,-26.3
2022-07-27T20:20:05.591Z,-26.2
2022-07-27T20:22:07.363Z,-26.1
2022-07-27T20:24:08.785Z,-26.1
2022-07-27T20:26:10.017Z,-26.1
2022-07-27T20:28:11.158Z,-26.2
2022-07-27T20:30:12.606Z,-26.2
2022-07-27T20:32:13.889Z,-26.1
2022-07-27T20:34:14.954Z,-26.3
2022-07-27T20:36:16.467Z,-26.3
2022-07-27T20:38:18.007Z,-26.3
2022-07-27T20:40:19.805Z,-26.3
2022-07-27T20:42:21.051Z,-26.4
2022-07-27T20:44:22.883Z,-26.5
2022-07-27T20:46:24.168Z,-26.3
2022-07-27T20:48:25.287Z,-26.2
2022-07-27T20:50:26.728Z,-26.5
2022-07-27T20:52:28.529Z,-26.1
2022-07-27T20:54:29.895Z,-26.2
2022-07-27T20:56:31.258Z,-26.1
2022-07-27T20:58:33.039Z,-26.3
2022-07-27T21:00:34.689Z,-26.1
2022-07-27T21:02:36.160Z,-26.1
2022-07-27T21:04:37.936Z,-26.1
2022-07-27T21:10:41.777Z,-26.3
2022-07-27T21:12:42.765Z,-26.3
2022-07-27T21:14:44.387Z,-26.4
2022-07-27T21:16:45.536Z,-26.4
2022-07-27T21:18:46.845Z,-26.1
2022-07-27T21:20:48.021Z,-26.1
2022-07-27T21:24:51.237Z,-26.1
2022-07-27T21:26:52.833Z,-26.2
2022-07-27T21:28:54.441Z,-26.3
2022-07-27T21:30:56.067Z,-26.6
2022-07-27T21:32:57.094Z,-26.1
2022-07-27T21:34:58.133Z,-26.2
2022-07-27T21:36:59.461Z,-26.2
2022-07-27T21:39:00.603Z,-26.2
2022-07-27T21:41:01.698Z,-26.6
2022-07-27T21:43:03.160Z,-26.3
2022-07-27T21:45:04.155Z,-26.3
2022-07-27T21:47:06.755Z,-26.2
2022-07-27T21:51:08.395Z,-26.5
2022-07-27T21:53:09.552Z,-26.2
2022-07-27T21:55:11.044Z,-26.3
2022-07-27T21:57:12.662Z,-26.1
2022-07-27T21:59:13.631Z,-26.3
2022-07-27T22:01:15.071Z,-26.1
2022-07-27T22:03:16.047Z,-26.1
2022-07-27T22:05:17.605Z,-26.1
2022-07-27T22:07:19.677Z,-26.3
2022-07-27T22:09:20.918Z,-26.5
2022-07-27T22:11:22.698Z,-26.3
2022-07-27T22:13:24.268Z,-26.4
2022-07-27T22:15:25.209Z,-26.3
2022-07-27T22:17:26.945Z,-26.4
2022-07-27T22:19:27.873Z,-26.1
2022-07-27T22:21:29.242Z,-26.1
2022-07-27T22:23:30.713Z,-26.2
2022-07-27T22:25:31.850Z,-26.3
2022-07-27T22:27:33.650Z,-26.3
2022-07-27T22:29:34.873Z,-26.3
2022-07-27T22:31:36.533Z,-26.3
2022-07-27T22:33:38.298Z,-26.2
2022-07-27T22:35:39.733Z,-25.9
2022-07-27T22:39:42.794Z,-26.4
2022-07-27T22:41:43.814Z,-26.5
2022-07-27T22:43:45.233Z,-26.1
2022-07-27T22:45:47.176Z,-26.2
2022-07-27T22:47:48.170Z,-26.4
2022-07-27T22:49:49.405Z,-25.9
2022-07-27T22:51:52.985Z,-26.1
2022-07-27T22:53:51.947Z,-26.3
2022-07-27T22:55:52.966Z,-26.2
2022-07-27T22:57:53.917Z,-26.3
2022-07-27T22:59:55.068Z,-26.2
2022-07-27T23:01:56.724Z,-26.5
2022-07-27T23:03:57.654Z,-26.1
2022-07-27T23:05:58.845Z,-26.4
2022-07-27T23:08:00.707Z,-26.4
2022-07-27T23:10:01.849Z,-26.3
2022-07-27T23:12:02.910Z,-26.3
2022-07-27T23:14:04.095Z,-26.2
2022-07-27T23:16:05.139Z,-26.4
2022-07-27T23:18:06.139Z,-26.3
2022-07-27T23:20:07.420Z,-26.4
2022-07-27T23:22:10.834Z,-26.5
2022-07-27T23:24:10.539Z,-26.3
2022-07-27T23:28:13.432Z,-26.3
2022-07-27T23:30:15.057Z,-26
2022-07-27T23:32:16.700Z,-26.1
2022-07-27T23:34:18.422Z,-26.3
2022-07-27T23:36:19.888Z,-26.4
2022-07-27T23:38:20.927Z,-26.3
2022-07-27T23:40:22.752Z,-26.2
2022-07-27T23:42:23.771Z,-26.1
2022-07-27T23:44:25.551Z,-26.2
2022-07-27T23:50:29.391Z,-26.4
2022-07-27T23:52:30.942Z,-26.2
2022-07-27T23:54:32.367Z,-26.3
2022-07-27T23:56:33.800Z,-26.6
2022-07-27T23:58:34.938Z,-26
